Time;durP1;ratioP1;P1;durP2;ratioP2;P2;SDS_P1;SDS_P2;PMS_P1;PMS_P2;Temp;Humidity;BMP_temperature;BMP_pressure;BME280_temperature;BME280_humidity;BME280_pressure;Samples;Min_cycle;Max_cycle;Signal;HPM_P1;HPM_P2
2022/03/26 00:00:25;;;;;;;86.47;65.00;;;4.20;99.90;;;;;;5048852;28;20921;-84
2022/03/26 00:02:51;;;;;;;117.13;76.80;;;4.20;99.90;;;;;;5050512;28;20376;-84
2022/03/26 00:05:17;;;;;;;95.13;69.87;;;4.30;99.90;;;;;;5050495;28;20487;-83
2022/03/26 00:07:43;;;;;;;93.60;67.32;;;4.30;99.90;;;;;;5052333;28;20858;-84
2022/03/26 00:10:10;;;;;;;90.90;65.68;;;4.20;99.90;;;;;;5050896;28;20376;-83
2022/03/26 00:12:36;;;;;;;91.85;67.55;;;4.00;99.90;;;;;;5052994;28;20388;-83
2022/03/26 00:15:04;;;;;;;89.40;66.22;;;4.10;99.90;;;;;;5053271;28;20380;-83
2022/03/26 00:17:30;;;;;;;87.30;64.28;;;4.00;99.90;;;;;;5050891;28;20419;-83
2022/03/26 00:19:56;;;;;;;95.97;65.43;;;4.00;99.90;;;;;;5050043;28;20403;-83
2022/03/26 00:22:22;;;;;;;90.03;65.65;;;3.90;99.90;;;;;;5051365;28;20384;-82
2022/03/26 00:24:48;;;;;;;89.75;66.03;;;3.90;99.90;;;;;;5049520;28;20372;-84
2022/03/26 00:27:14;;;;;;;91.00;66.40;;;3.90;99.90;;;;;;5049254;28;20372;-83
2022/03/26 00:29:39;;;;;;;86.53;63.00;;;3.90;99.90;;;;;;5049857;28;20380;-82
2022/03/26 00:32:06;;;;;;;83.00;62.92;;;3.80;99.90;;;;;;5048828;28;20924;-83
2022/03/26 00:34:32;;;;;;;85.38;63.95;;;3.80;99.90;;;;;;5050119;28;20406;-83
2022/03/26 00:36:58;;;;;;;87.57;64.38;;;3.80;99.90;;;;;;5050465;28;20403;-84
2022/03/26 00:39:24;;;;;;;80.88;61.97;;;3.70;99.90;;;;;;5050388;28;20407;-84
2022/03/26 00:41:50;;;;;;;88.82;64.22;;;3.70;99.90;;;;;;5052021;28;20396;-83
2022/03/26 00:44:16;;;;;;;80.70;59.63;;;3.60;99.90;;;;;;5053248;28;20380;-83
2022/03/26 00:46:45;;;;;;;84.53;63.38;;;3.70;99.90;;;;;;5053825;28;20383;-84
2022/03/26 00:49:11;;;;;;;75.63;59.58;;;3.60;99.90;;;;;;5052122;28;20396;-83
2022/03/26 00:51:37;;;;;;;77.03;60.78;;;3.60;99.90;;;;;;5052076;28;20486;-83
2022/03/26 00:54:03;;;;;;;81.10;62.25;;;3.60;99.90;;;;;;5052583;28;20471;-83
2022/03/26 00:56:29;;;;;;;83.68;63.05;;;3.60;99.90;;;;;;5052252;28;20388;-82
2022/03/26 00:58:54;;;;;;;77.65;60.83;;;3.60;99.90;;;;;;5051293;28;20400;-83
2022/03/26 01:01:20;;;;;;;77.88;59.42;;;3.60;99.90;;;;;;5053157;28;20458;-82
2022/03/26 01:03:46;;;;;;;76.35;59.97;;;3.50;99.90;;;;;;5051636;28;20386;-83
2022/03/26 01:06:14;;;;;;;78.18;61.05;;;3.40;99.90;;;;;;5050764;28;20928;-83
2022/03/26 01:08:39;;;;;;;77.57;60.25;;;3.50;99.90;;;;;;5051792;28;20471;-83
2022/03/26 01:11:05;;;;;;;79.13;61.55;;;3.40;99.90;;;;;;5053787;28;20411;-83
2022/03/26 01:13:32;;;;;;;76.27;60.97;;;3.40;99.90;;;;;;5052100;28;20400;-82
2022/03/26 01:15:57;;;;;;;77.25;59.83;;;3.40;99.90;;;;;;5051946;28;20432;-83
2022/03/26 01:18:23;;;;;;;77.65;60.20;;;3.40;99.90;;;;;;5053669;28;20379;-82
2022/03/26 01:20:49;;;;;;;74.70;57.00;;;3.40;99.90;;;;;;5052369;28;20453;-82
2022/03/26 01:23:19;;;;;;;72.68;59.05;;;3.40;99.90;;;;;;5053702;28;20384;-82
2022/03/26 01:25:44;;;;;;;77.40;61.22;;;3.40;99.90;;;;;;5052990;28;20485;-83
2022/03/26 01:28:10;;;;;;;75.45;59.88;;;3.30;99.90;;;;;;5056136;28;20447;-84
2022/03/26 01:30:36;;;;;;;80.30;59.50;;;3.20;99.90;;;;;;5053563;28;20382;-83
2022/03/26 01:33:01;;;;;;;78.50;59.70;;;3.20;99.90;;;;;;5052725;28;20434;-84
2022/03/26 01:35:27;;;;;;;73.27;58.17;;;3.20;99.90;;;;;;5052788;28;20391;-83
2022/03/26 01:37:52;;;;;;;76.17;60.73;;;3.10;99.90;;;;;;5053411;28;20467;-84
2022/03/26 01:40:18;;;;;;;74.55;58.92;;;3.10;99.90;;;;;;5053262;28;20368;-83
2022/03/26 01:42:44;;;;;;;82.33;61.63;;;3.10;99.90;;;;;;5053398;28;20368;-84
2022/03/26 01:45:13;;;;;;;81.77;61.27;;;3.10;99.90;;;;;;5052275;28;20378;-83
2022/03/26 01:47:40;;;;;;;75.13;58.97;;;3.00;99.90;;;;;;5054228;28;20468;-84
2022/03/26 01:50:06;;;;;;;81.82;61.35;;;3.00;99.90;;;;;;5053404;28;20376;-84
2022/03/26 01:52:32;;;;;;;78.97;59.42;;;3.00;99.90;;;;;;5051818;28;20997;-83
2022/03/26 01:54:58;;;;;;;78.93;58.67;;;3.00;99.90;;;;;;5052228;28;20494;-84
2022/03/26 01:57:25;;;;;;;79.15;56.75;;;2.90;99.90;;;;;;5053095;28;20379;-84
2022/03/26 01:59:52;;;;;;;82.55;59.55;;;2.90;99.90;;;;;;5052482;28;20396;-84
2022/03/26 02:02:18;;;;;;;73.53;57.58;;;3.00;99.90;;;;;;5053998;28;20415;-84
2022/03/26 02:04:44;;;;;;;78.15;57.85;;;2.90;99.90;;;;;;5053547;28;21150;-83
2022/03/26 02:07:09;;;;;;;82.27;59.67;;;3.00;99.90;;;;;;5051719;28;20769;-84
2022/03/26 02:09:35;;;;;;;77.57;57.80;;;2.90;99.90;;;;;;5052748;28;20372;-84
2022/03/26 02:12:03;;;;;;;81.57;59.65;;;2.90;99.90;;;;;;5053296;28;20380;-83
2022/03/26 02:14:29;;;;;;;69.43;56.05;;;2.90;99.90;;;;;;5050726;28;20537;-84
2022/03/26 02:16:55;;;;;;;75.90;56.60;;;2.90;99.90;;;;;;5052748;28;20851;-84
2022/03/26 02:19:20;;;;;;;78.50;57.23;;;2.90;99.90;;;;;;5052720;28;20383;-84
2022/03/26 02:21:49;;;;;;;74.82;56.00;;;2.80;99.90;;;;;;5051375;28;20422;-83
2022/03/26 02:24:15;;;;;;;76.80;57.13;;;2.80;99.90;;;;;;5051250;28;20394;-84
2022/03/26 02:26:41;;;;;;;77.75;56.20;;;2.70;99.90;;;;;;5052990;28;20384;-84
2022/03/26 02:29:10;;;;;;;68.70;53.10;;;2.70;99.90;;;;;;5050707;28;20466;-83
2022/03/26 02:31:37;;;;;;;69.18;53.90;;;2.70;99.90;;;;;;5051530;28;20388;-83
2022/03/26 02:34:05;;;;;;;69.97;55.80;;;2.70;99.90;;;;;;5050769;28;20407;-83
2022/03/26 02:36:31;;;;;;;67.60;53.10;;;2.70;99.90;;;;;;5052165;28;20408;-83
2022/03/26 02:38:57;;;;;;;68.60;54.00;;;2.70;99.90;;;;;;5049757;28;20390;-84
2022/03/26 02:41:22;;;;;;;70.97;54.47;;;2.60;99.90;;;;;;5051418;28;20376;-83
2022/03/26 02:43:48;;;;;;;73.28;55.25;;;2.70;99.90;;;;;;5051266;28;20387;-84
2022/03/26 02:46:14;;;;;;;68.22;53.42;;;2.70;99.90;;;;;;5049706;28;20441;-83
2022/03/26 02:48:41;;;;;;;67.87;53.30;;;2.60;99.90;;;;;;5050344;28;20436;-84
2022/03/26 02:51:07;;;;;;;64.73;51.10;;;2.60;99.90;;;;;;5050742;28;20762;-83
2022/03/26 02:53:33;;;;;;;68.07;54.47;;;2.60;99.90;;;;;;5052686;28;20434;-83
2022/03/26 02:55:58;;;;;;;66.07;51.53;;;2.60;99.90;;;;;;5051136;28;20478;-84
2022/03/26 02:58:24;;;;;;;65.38;52.40;;;2.60;99.90;;;;;;5051399;28;20908;-84
2022/03/26 03:00:50;;;;;;;62.90;51.50;;;2.50;99.90;;;;;;5053062;28;20383;-84
2022/03/26 03:03:16;;;;;;;68.97;53.30;;;2.50;99.90;;;;;;5051185;28;20388;-84
2022/03/26 03:05:46;;;;;;;64.33;52.17;;;2.50;99.90;;;;;;5050034;28;20482;-84
2022/03/26 03:08:12;;;;;;;63.03;49.88;;;2.50;99.90;;;;;;5052215;28;20384;-84
2022/03/26 03:10:38;;;;;;;61.75;47.67;;;2.50;99.90;;;;;;5049637;28;20394;-83
2022/03/26 03:13:03;;;;;;;64.30;50.53;;;2.50;99.90;;;;;;5053029;28;20859;-84
2022/03/26 03:15:29;;;;;;;64.07;51.43;;;2.40;99.90;;;;;;5051757;28;20387;-84
2022/03/26 03:17:55;;;;;;;63.83;49.37;;;2.50;99.90;;;;;;5052040;28;20924;-83
2022/03/26 03:20:20;;;;;;;63.60;49.72;;;2.40;99.90;;;;;;5048065;28;20497;-84
2022/03/26 03:22:46;;;;;;;67.40;51.40;;;2.50;99.90;;;;;;5050332;28;20399;-83
2022/03/26 03:25:12;;;;;;;69.03;50.65;;;2.40;99.90;;;;;;5050397;28;20398;-84
2022/03/26 03:27:40;;;;;;;66.90;51.67;;;2.40;99.90;;;;;;5048318;28;20471;-84
2022/03/26 03:30:06;;;;;;;63.00;48.92;;;2.40;99.90;;;;;;5048895;28;20411;-84
2022/03/26 03:32:32;;;;;;;64.93;48.65;;;2.40;99.90;;;;;;5049059;28;20462;-84
2022/03/26 03:34:57;;;;;;;68.87;51.00;;;2.40;99.90;;;;;;5048986;28;20874;-83
2022/03/26 03:37:26;;;;;;;68.20;51.17;;;2.40;99.90;;;;;;5031409;28;20413;-84
2022/03/26 03:39:51;;;;;;;69.20;52.47;;;2.40;99.90;;;;;;5030708;28;20403;-82
2022/03/26 03:42:17;;;;;;;65.00;50.63;;;2.50;99.90;;;;;;5029420;28;20939;-84
2022/03/26 03:44:43;;;;;;;68.00;50.97;;;2.50;99.90;;;;;;5030208;28;20408;-83
2022/03/26 03:47:08;;;;;;;67.50;50.90;;;2.40;99.90;;;;;;5030203;28;20933;-83
2022/03/26 03:49:35;;;;;;;62.13;48.15;;;2.40;99.90;;;;;;5046625;28;20475;-82
2022/03/26 03:52:04;;;;;;;65.10;49.28;;;2.30;99.90;;;;;;5050055;28;20915;-83
2022/03/26 03:54:30;;;;;;;65.32;49.47;;;2.20;99.90;;;;;;5050313;28;20396;-83
2022/03/26 03:56:56;;;;;;;62.17;49.55;;;2.20;99.90;;;;;;5048594;28;20742;-84
2022/03/26 03:59:22;;;;;;;62.17;47.58;;;2.20;99.90;;;;;;5048753;28;20866;-83
2022/03/26 04:01:47;;;;;;;59.67;45.90;;;2.10;99.90;;;;;;5050162;28;20450;-83
2022/03/26 04:04:13;;;;;;;62.80;48.42;;;2.10;99.90;;;;;;5049692;28;20404;-84
2022/03/26 04:06:39;;;;;;;67.68;48.78;;;2.10;99.90;;;;;;5049715;28;20938;-84
2022/03/26 04:09:04;;;;;;;62.13;48.05;;;2.10;99.90;;;;;;5050423;28;20411;-83
2022/03/26 04:11:30;;;;;;;65.05;47.97;;;2.10;99.90;;;;;;5049417;28;20430;-84
2022/03/26 04:13:56;;;;;;;72.33;51.93;;;2.20;99.90;;;;;;5049806;28;20927;-83
2022/03/26 04:16:23;;;;;;;64.43;47.13;;;2.20;99.90;;;;;;5051962;28;20387;-84
2022/03/26 04:18:49;;;;;;;60.70;47.22;;;2.20;99.90;;;;;;5055571;28;20371;-83
2022/03/26 04:21:15;;;;;;;65.05;47.03;;;2.20;99.90;;;;;;5055508;28;20466;-83
2022/03/26 04:23:41;;;;;;;70.32;49.35;;;2.10;99.90;;;;;;5054382;28;20890;-83
2022/03/26 04:26:08;;;;;;;67.63;49.97;;;2.20;99.90;;;;;;5036202;28;20395;-83
2022/03/26 04:28:34;;;;;;;73.60;52.25;;;2.20;99.90;;;;;;5034427;28;20403;-83
2022/03/26 04:31:00;;;;;;;69.75;49.42;;;2.20;99.90;;;;;;5045803;28;20960;-83
2022/03/26 04:33:25;;;;;;;76.15;51.67;;;2.10;99.90;;;;;;5052776;28;20491;-83
2022/03/26 04:35:51;;;;;;;69.75;50.05;;;2.00;99.90;;;;;;5052416;28;20881;-83
2022/03/26 04:38:16;;;;;;;74.20;52.77;;;2.10;99.90;;;;;;5052452;28;20391;-82
2022/03/26 04:40:42;;;;;;;72.80;51.30;;;2.10;99.90;;;;;;5053941;28;20387;-82
2022/03/26 04:43:08;;;;;;;79.83;54.23;;;2.10;99.90;;;;;;5053932;28;20376;-83
2022/03/26 04:45:34;;;;;;;89.53;58.23;;;2.20;99.90;;;;;;5053491;28;20927;-83
2022/03/26 04:48:00;;;;;;;77.73;53.37;;;2.30;99.90;;;;;;5052360;28;20474;-82
2022/03/26 04:50:26;;;;;;;92.57;61.37;;;2.30;99.90;;;;;;5052871;28;20470;-83
2022/03/26 04:52:52;;;;;;;96.65;61.00;;;2.40;99.90;;;;;;5052206;28;20773;-82
2022/03/26 04:55:18;;;;;;;87.07;57.83;;;2.40;99.90;;;;;;5036161;28;20759;-83
2022/03/26 04:57:51;;;;;;;95.53;62.20;;;2.40;99.90;;;;;;5033784;28;20492;-83
2022/03/26 05:00:18;;;;;;;92.30;60.97;;;2.50;99.90;;;;;;5033530;28;20393;-83
2022/03/26 05:02:44;;;;;;;93.75;58.72;;;2.50;99.90;;;;;;5031874;28;20373;-83
2022/03/26 05:05:11;;;;;;;104.43;66.93;;;2.50;99.90;;;;;;5032770;28;20432;-83
2022/03/26 05:07:46;;;;;;;93.77;61.90;;;2.50;99.90;;;;;;5032905;28;20397;-83
2022/03/26 05:10:17;;;;;;;102.05;66.60;;;2.60;99.90;;;;;;5031933;28;20397;-82
2022/03/26 05:12:44;;;;;;;105.85;67.43;;;2.60;99.90;;;;;;5033207;28;20443;-83
2022/03/26 05:15:10;;;;;;;112.22;69.85;;;2.70;99.90;;;;;;5033155;28;20376;-83
2022/03/26 05:17:36;;;;;;;103.32;66.93;;;2.80;99.90;;;;;;5033677;28;20914;-82
2022/03/26 05:20:03;;;;;;;115.85;73.25;;;3.00;99.90;;;;;;5032309;28;20457;-83
2022/03/26 05:22:29;;;;;;;112.90;72.45;;;3.10;99.90;;;;;;5032386;28;20390;-82
2022/03/26 05:24:54;;;;;;;110.20;68.40;;;3.30;99.90;;;;;;5031493;28;20396;-83
2022/03/26 05:27:21;;;;;;;113.67;69.03;;;3.60;99.90;;;;;;5031891;28;20409;-84
2022/03/26 05:29:46;;;;;;;101.13;65.07;;;3.60;99.90;;;;;;5032027;28;20381;-83
2022/03/26 05:32:16;;;;;;;109.03;69.23;;;3.70;99.90;;;;;;5052357;28;20741;-83
2022/03/26 05:34:42;;;;;;;105.32;69.32;;;3.80;99.90;;;;;;5052707;28;20467;-83
2022/03/26 05:37:08;;;;;;;102.85;66.85;;;3.90;99.90;;;;;;5052891;28;20482;-83
2022/03/26 05:39:33;;;;;;;93.60;62.57;;;4.10;99.90;;;;;;5052610;28;20434;-83
2022/03/26 05:42:00;;;;;;;97.90;66.07;;;4.30;99.90;;;;;;5043980;28;20427;-84
2022/03/26 05:44:26;;;;;;;87.43;61.58;;;4.40;99.90;;;;;;5040835;28;20809;-84
2022/03/26 05:46:51;;;;;;;83.00;57.88;;;4.60;99.90;;;;;;5043658;28;20481;-83
2022/03/26 05:49:17;;;;;;;78.55;55.90;;;4.70;99.90;;;;;;5043081;28;20818;-84
2022/03/26 05:51:44;;;;;;;80.55;55.40;;;4.90;99.90;;;;;;5041205;28;20447;-83
2022/03/26 05:54:10;;;;;;;73.82;51.65;;;5.00;99.90;;;;;;5031717;28;20409;-83
2022/03/26 05:56:36;;;;;;;70.63;50.78;;;5.20;99.90;;;;;;5044979;28;20703;-83
2022/03/26 05:59:06;;;;;;;67.65;46.88;;;5.40;99.90;;;;;;5052321;28;20382;-83
2022/03/26 06:01:32;;;;;;;65.22;47.03;;;5.70;99.90;;;;;;5054084;28;20475;-82
2022/03/26 06:03:58;;;;;;;63.33;46.47;;;5.80;99.90;;;;;;5056530;28;20762;-84
2022/03/26 06:06:25;;;;;;;66.07;47.33;;;6.20;99.90;;;;;;5053792;28;20388;-83
2022/03/26 06:08:51;;;;;;;64.10;46.85;;;6.30;99.90;;;;;;5042572;28;20389;-84
2022/03/26 06:11:17;;;;;;;61.75;46.55;;;6.50;99.90;;;;;;5032868;28;20480;-83
2022/03/26 06:13:42;;;;;;;65.83;47.97;;;6.80;99.90;;;;;;5033110;28;20492;-83
2022/03/26 06:16:08;;;;;;;63.03;48.17;;;6.90;99.90;;;;;;5033931;28;20377;-83
2022/03/26 06:18:34;;;;;;;67.95;48.88;;;7.10;99.90;;;;;;5032081;28;20420;-83
2022/03/26 06:21:00;;;;;;;63.28;47.40;;;7.30;99.90;;;;;;5032030;28;20377;-84
2022/03/26 06:23:26;;;;;;;65.10;47.65;;;7.50;99.90;;;;;;5030848;28;20868;-84
2022/03/26 06:25:52;;;;;;;65.45;47.25;;;7.60;99.90;;;;;;5032558;28;20388;-83
2022/03/26 06:28:19;;;;;;;66.93;47.08;;;7.90;99.90;;;;;;5031435;28;20748;-83
2022/03/26 06:30:46;;;;;;;66.90;47.95;;;8.10;99.90;;;;;;5031349;28;20401;-83
2022/03/26 06:33:13;;;;;;;65.55;47.10;;;8.20;99.90;;;;;;5030476;28;20413;-83
2022/03/26 06:35:38;;;;;;;64.95;46.95;;;8.40;99.90;;;;;;5032258;28;20898;-83
2022/03/26 06:38:04;;;;;;;64.60;47.83;;;8.60;99.90;;;;;;5030885;28;20394;-83
2022/03/26 06:40:30;;;;;;;64.95;47.40;;;8.70;99.90;;;;;;5031270;28;20378;-83
2022/03/26 06:42:56;;;;;;;63.55;46.53;;;8.90;99.90;;;;;;5033622;28;20887;-83
2022/03/26 06:45:22;;;;;;;64.88;47.90;;;9.00;99.90;;;;;;5046572;28;20394;-82
2022/03/26 06:47:48;;;;;;;68.97;46.83;;;9.10;99.90;;;;;;5058171;28;20877;-83
2022/03/26 06:50:13;;;;;;;63.93;46.27;;;9.20;99.90;;;;;;5060641;28;20395;-84
2022/03/26 06:52:39;;;;;;;62.92;46.45;;;9.30;99.90;;;;;;5052526;28;20415;-83
2022/03/26 06:55:06;;;;;;;60.75;43.47;;;9.40;99.90;;;;;;5055282;28;20419;-84
2022/03/26 06:57:32;;;;;;;62.72;45.03;;;9.60;99.90;;;;;;5054861;28;20449;-81
2022/03/26 06:59:58;;;;;;;61.03;45.35;;;9.80;99.90;;;;;;5036748;28;20783;-81
2022/03/26 07:02:23;;;;;;;56.65;43.28;;;9.90;99.90;;;;;;5038708;28;20478;-82
2022/03/26 07:04:49;;;;;;;59.93;43.17;;;10.10;99.90;;;;;;5050751;28;20384;-82
2022/03/26 07:07:15;;;;;;;57.47;42.73;;;10.20;99.90;;;;;;5053338;28;20898;-84
2022/03/26 07:09:41;;;;;;;62.05;42.88;;;10.30;99.90;;;;;;5055141;28;20431;-83
2022/03/26 07:12:13;;;;;;;58.88;42.00;;;10.50;99.90;;;;;;5053428;28;20964;-83
2022/03/26 07:14:39;;;;;;;54.17;41.20;;;10.40;99.90;;;;;;5051945;28;20406;-83
2022/03/26 07:17:05;;;;;;;53.87;41.93;;;10.60;99.90;;;;;;5051600;28;20376;-83
2022/03/26 07:19:34;;;;;;;54.15;41.25;;;10.60;99.90;;;;;;5055999;28;20758;-83
2022/03/26 07:22:00;;;;;;;57.28;41.65;;;10.70;99.90;;;;;;5071248;28;20393;-82
2022/03/26 07:24:25;;;;;;;55.25;40.63;;;10.60;99.90;;;;;;5072313;28;20390;-81
2022/03/26 07:26:51;;;;;;;57.63;40.10;;;10.70;99.90;;;;;;5072564;28;20370;-82
2022/03/26 07:29:20;;;;;;;52.93;40.00;;;10.60;99.90;;;;;;5074381;28;20864;-84
2022/03/26 07:31:49;;;;;;;52.15;39.95;;;10.70;99.90;;;;;;5069478;28;20398;-82
2022/03/26 07:34:16;;;;;;;52.20;40.17;;;10.80;99.90;;;;;;5058468;28;20912;-83
2022/03/26 07:36:44;;;;;;;56.30;41.35;;;10.80;99.90;;;;;;5052869;28;20686;-84
2022/03/26 07:39:10;;;;;;;58.17;40.25;;;10.80;99.90;;;;;;5055207;28;20404;-84
2022/03/26 07:41:36;;;;;;;54.70;39.67;;;10.70;99.90;;;;;;5052914;28;20384;-83
2022/03/26 07:44:01;;;;;;;56.07;40.27;;;10.80;99.90;;;;;;5054821;28;20390;-84
2022/03/26 07:46:27;;;;;;;51.22;39.10;;;10.90;99.90;;;;;;5054756;28;20384;-84
2022/03/26 07:48:53;;;;;;;49.78;37.50;;;11.20;99.90;;;;;;5053946;28;20415;-84
2022/03/26 07:51:18;;;;;;;50.43;38.57;;;11.50;99.90;;;;;;5052246;28;20395;-85
2022/03/26 07:53:44;;;;;;;49.50;37.72;;;11.80;99.90;;;;;;5053684;28;20494;-84
2022/03/26 07:56:10;;;;;;;50.17;38.75;;;11.90;99.90;;;;;;5052165;28;20420;-83
2022/03/26 07:58:35;;;;;;;49.27;35.90;;;12.00;99.90;;;;;;5052411;28;20387;-83
2022/03/26 08:01:01;;;;;;;48.13;35.90;;;12.10;99.90;;;;;;5054417;28;20388;-84
2022/03/26 08:03:27;;;;;;;48.20;36.27;;;12.20;99.90;;;;;;5051417;28;20822;-84
2022/03/26 08:05:52;;;;;;;43.75;34.95;;;12.10;99.90;;;;;;5044483;28;20944;-84
2022/03/26 08:08:18;;;;;;;46.28;35.30;;;12.20;99.90;;;;;;5042011;28;20384;-84
2022/03/26 08:10:47;;;;;;;45.97;34.27;;;12.40;99.90;;;;;;5041249;28;20784;-85
2022/03/26 08:13:13;;;;;;;45.92;34.13;;;12.50;99.90;;;;;;5044684;28;20488;-83
2022/03/26 08:15:38;;;;;;;45.55;32.95;;;12.60;99.90;;;;;;5041337;28;20455;-84
2022/03/26 08:18:04;;;;;;;43.20;33.15;;;12.80;99.90;;;;;;5041117;28;20982;-84
2022/03/26 08:20:30;;;;;;;39.37;31.63;;;13.00;99.90;;;;;;5042633;28;20385;-83
2022/03/26 08:22:57;;;;;;;41.50;31.70;;;12.90;99.90;;;;;;5023484;28;20483;-84
2022/03/26 08:28:11;;;;;;;38.95;28.27;;;13.40;99.90;;;;;;5034933;28;20377;-83
2022/03/26 08:30:37;;;;;;;45.13;29.20;;;13.80;99.90;;;;;;5036636;28;20444;-84
2022/03/26 08:33:04;;;;;;;43.30;28.42;;;14.20;99.90;;;;;;5051662;28;20525;-84
2022/03/26 08:35:38;;;;;;;42.75;27.42;;;14.70;99.90;;;;;;5050604;28;20793;-83
2022/03/26 08:38:05;;;;;;;34.85;24.63;;;15.10;99.90;;;;;;5050494;28;20380;-84
2022/03/26 08:40:31;;;;;;;32.28;24.83;;;14.90;99.90;;;;;;5052723;28;20387;-85
2022/03/26 08:42:58;;;;;;;35.23;26.80;;;14.70;99.90;;;;;;5055342;28;20475;-85
2022/03/26 08:45:26;;;;;;;32.72;25.30;;;14.50;99.90;;;;;;5053297;28;20439;-83
2022/03/26 08:47:51;;;;;;;32.75;24.77;;;14.10;99.90;;;;;;5050075;28;20936;-84
2022/03/26 08:50:17;;;;;;;38.13;24.48;;;14.10;99.90;;;;;;5049668;28;20380;-83
2022/03/26 08:52:43;;;;;;;31.02;22.45;;;14.40;99.90;;;;;;5049681;28;20858;-85
2022/03/26 08:55:09;;;;;;;36.27;23.00;;;14.70;99.90;;;;;;5050046;28;20407;-85
2022/03/26 08:57:34;;;;;;;33.03;22.35;;;14.80;99.90;;;;;;5050083;28;20738;-84
2022/03/26 09:00:00;;;;;;;45.38;21.40;;;14.80;99.90;;;;;;5050278;28;20932;-84
2022/03/26 09:02:26;;;;;;;27.03;19.00;;;14.80;99.90;;;;;;5050819;28;20402;-84
2022/03/26 09:04:52;;;;;;;24.35;18.00;;;14.80;99.90;;;;;;5052703;28;20411;-84
2022/03/26 09:07:18;;;;;;;35.97;17.57;;;14.90;99.90;;;;;;5054055;28;20407;-84
2022/03/26 09:09:44;;;;;;;23.65;18.10;;;14.80;99.90;;;;;;5053010;28;20411;-85
2022/03/26 09:12:12;;;;;;;23.15;17.15;;;;;;;;;;5054134;28;20379;-84
2022/03/26 09:14:38;;;;;;;25.17;18.20;;;;;;;;;;5053610;28;20391;-83
2022/03/26 09:17:04;;;;;;;22.70;17.85;;;;;;;;;;5052957;28;20433;-83
2022/03/26 09:19:30;;;;;;;22.35;18.35;;;;;;;;;;5052674;28;20914;-85
2022/03/26 09:21:56;;;;;;;22.17;18.23;;;;;;;;;;5054077;28;20449;-83
2022/03/26 09:24:23;;;;;;;26.45;17.35;;;;;;;;;;5054292;28;20874;-85
2022/03/26 09:26:48;;;;;;;24.10;18.90;;;14.60;99.90;;;;;;5052786;28;20461;-84
2022/03/26 09:29:15;;;;;;;27.42;19.77;;;14.20;99.90;;;;;;5055077;28;20391;-83
2022/03/26 09:31:43;;;;;;;29.50;20.13;;;14.40;99.90;;;;;;5053202;28;20392;-87
2022/03/26 09:34:09;;;;;;;26.55;20.42;;;14.00;99.90;;;;;;5053677;28;20395;-83
2022/03/26 09:36:35;;;;;;;26.17;20.40;;;14.10;99.90;;;;;;5054338;28;20399;-83
2022/03/26 09:39:00;;;;;;;26.15;21.05;;;14.40;99.90;;;;;;5053923;28;20870;-83
2022/03/26 09:41:27;;;;;;;30.43;21.50;;;14.30;99.90;;;;;;5052058;28;20897;-84
2022/03/26 09:43:54;;;;;;;25.92;21.25;;;14.40;99.90;;;;;;5053071;28;20372;-85
2022/03/26 09:46:20;;;;;;;30.90;21.47;;;14.60;99.90;;;;;;5043342;28;20386;-86
2022/03/26 09:48:46;;;;;;;26.52;21.38;;;14.40;99.90;;;;;;5032169;28;20733;-84
2022/03/26 09:51:15;;;;;;;26.85;21.17;;;14.60;99.90;;;;;;5032475;28;20721;-84
2022/03/26 09:53:41;;;;;;;26.00;20.80;;;14.60;99.90;;;;;;5031393;28;20401;-83
2022/03/26 09:56:07;;;;;;;28.40;22.58;;;14.70;99.90;;;;;;5031865;28;20390;-85
2022/03/26 09:58:33;;;;;;;30.65;22.50;;;14.60;99.90;;;;;;5042244;28;20380;-84
2022/03/26 10:00:59;;;;;;;28.50;22.13;;;14.30;99.90;;;;;;5051895;28;21007;-83
2022/03/26 10:03:25;;;;;;;25.27;21.63;;;14.50;99.90;;;;;;5052814;28;20364;-83
2022/03/26 10:06:04;;;;;;;26.85;20.95;;;14.30;99.90;;;;;;5053992;28;20386;-84
2022/03/26 10:08:38;;;;;;;28.10;21.03;;;15.60;99.90;;;;;;5052657;28;20407;-84
2022/03/26 10:11:04;;;;;;;25.00;19.75;;;15.20;99.90;;;;;;5052702;28;20726;-84
2022/03/26 10:13:40;;;;;;;28.33;21.23;;;15.20;99.90;;;;;;5050796;28;20897;-85
2022/03/26 10:16:10;;;;;;;27.45;21.50;;;15.00;99.90;;;;;;5050368;28;20378;-86
2022/03/26 10:18:39;;;;;;;27.65;21.90;;;14.50;99.90;;;;;;5042412;28;20435;-83
2022/03/26 10:21:13;;;;;;;27.65;21.30;;;14.00;99.90;;;;;;5044766;28;20898;-84
2022/03/26 10:23:44;;;;;;;28.45;21.58;;;14.20;99.90;;;;;;5043965;28;20467;-85
2022/03/26 10:26:13;;;;;;;25.92;20.73;;;14.20;99.90;;;;;;5042523;28;20400;-84
2022/03/26 10:28:40;;;;;;;27.00;20.37;;;14.40;99.90;;;;;;5042936;28;20479;-85
2022/03/26 10:34:21;;;;;;;29.00;22.00;;;14.70;99.90;;;;;;5045152;28;20402;-84
2022/03/26 10:36:58;;;;;;;29.45;22.70;;;14.90;99.90;;;;;;5076162;28;20513;-82
2022/03/26 10:39:29;;;;;;;28.48;22.73;;;15.10;99.90;;;;;;5044691;28;20409;-82
2022/03/26 10:41:56;;;;;;;31.33;23.60;;;15.20;99.90;;;;;;5046826;28;20458;-83
2022/03/26 10:44:29;;;;;;;32.70;23.77;;;14.90;99.90;;;;;;5042089;28;20538;-83
2022/03/26 10:47:00;;;;;;;31.17;24.03;;;14.50;99.90;;;;;;5049959;28;20747;-85
2022/03/26 10:49:37;;;;;;;30.95;23.83;;;14.70;99.90;;;;;;5041139;28;20440;-83
2022/03/26 10:52:17;;;;;;;34.05;24.50;;;14.70;99.90;;;;;;5047051;28;20925;-84
2022/03/26 10:54:43;;;;;;;32.10;24.00;;;14.70;99.90;;;;;;5046462;28;20399;-83
2022/03/26 10:57:10;;;;;;;31.55;24.75;;;14.90;99.90;;;;;;5046108;28;20459;-84
2022/03/26 10:59:36;;;;;;;33.60;25.92;;;14.90;99.90;;;;;;5044854;28;20387;-84
2022/03/26 11:02:02;;;;;;;31.73;25.50;;;14.20;99.90;;;;;;5045143;28;20415;-84
2022/03/26 11:04:28;;;;;;;35.97;26.07;;;14.00;99.90;;;;;;5039388;28;20388;-83
2022/03/26 11:06:57;;;;;;;34.15;25.63;;;14.10;99.90;;;;;;5042075;28;20754;-83
2022/03/26 11:09:25;;;;;;;35.03;26.42;;;14.20;99.90;;;;;;5043420;28;20376;-84
2022/03/26 11:11:52;;;;;;;38.70;27.40;;;14.20;99.90;;;;;;5042104;28;20455;-83
2022/03/26 11:14:31;;;;;;;38.17;28.25;;;14.40;99.90;;;;;;5043507;28;20813;-83
2022/03/26 11:17:06;;;;;;;34.63;27.17;;;14.60;99.90;;;;;;5042194;28;20490;-84
2022/03/26 11:20:15;;;;;;;35.50;28.40;;;14.30;99.90;;;;;;5042288;28;20946;-83
2022/03/26 11:23:12;;;;;;;39.25;29.70;;;14.20;99.90;;;;;;5029611;28;20971;-82
2022/03/26 11:26:09;;;;;;;37.65;29.65;;;13.90;99.90;;;;;;5043235;28;20387;-86
2022/03/26 11:28:58;;;;;;;36.75;29.77;;;13.90;99.90;;;;;;5042493;28;20458;-83
2022/03/26 11:31:41;;;;;;;35.72;28.75;;;13.80;99.90;;;;;;5067997;28;20378;-83
2022/03/26 11:34:09;;;;;;;39.40;27.92;;;14.00;99.90;;;;;;5038870;28;20419;-84
2022/03/26 11:36:35;;;;;;;34.17;27.08;;;14.10;99.90;;;;;;5041522;28;20946;-84
2022/03/26 11:39:12;;;;;;;35.22;26.70;;;14.20;99.90;;;;;;5041616;28;20401;-84
2022/03/26 11:41:41;;;;;;;34.67;26.48;;;14.60;99.90;;;;;;5040250;28;20888;-84
2022/03/26 11:44:08;;;;;;;37.70;29.00;;;14.60;99.90;;;;;;5040765;28;20958;-83
2022/03/26 11:52:26;;;;;;;41.58;29.10;;;;;;;;;;5043214;28;20394;-84
2022/03/26 11:55:01;;;;;;;40.97;29.75;;;14.70;99.90;;;;;;5043418;28;20404;-84
2022/03/26 11:57:30;;;;;;;39.85;31.00;;;14.60;99.90;;;;;;5042059;28;20407;-85
2022/03/26 11:59:58;;;;;;;41.08;31.27;;;14.40;99.90;;;;;;5041381;28;20380;-83
2022/03/26 12:02:38;;;;;;;41.90;30.52;;;14.00;99.90;;;;;;5041663;28;20755;-84
2022/03/26 12:08:16;;;;;;;40.00;31.10;;;14.30;99.90;;;;;;5044767;28;20439;-84
2022/03/26 12:10:43;;;;;;;43.90;33.10;;;14.20;99.90;;;;;;5048192;28;20400;-84
2022/03/26 12:13:09;;;;;;;43.80;33.15;;;14.00;99.90;;;;;;5044744;28;20448;-82
2022/03/26 12:16:00;;;;;;;44.33;32.90;;;13.70;99.90;;;;;;5047703;28;20404;-84
2022/03/26 12:18:34;;;;;;;43.85;31.77;;;13.90;99.90;;;;;;5042005;28;20384;-85
2022/03/26 12:21:09;;;;;;;42.95;32.00;;;13.70;99.90;;;;;;5040649;28;20393;-84
2022/03/26 12:23:36;;;;;;;39.93;31.77;;;13.80;99.90;;;;;;5038192;28;20424;-83
2022/03/26 12:26:07;;;;;;;39.67;30.63;;;13.80;99.90;;;;;;5038757;28;20381;-83
2022/03/26 12:28:38;;;;;;;41.60;31.77;;;14.00;99.90;;;;;;5038128;28;20389;-81
2022/03/26 12:31:24;;;;;;;40.77;32.03;;;14.00;99.90;;;;;;5043898;28;20833;-83
2022/03/26 12:33:54;;;;;;;40.70;31.60;;;14.00;99.90;;;;;;5040255;28;20413;-82
2022/03/26 12:36:21;;;;;;;41.00;30.48;;;14.20;99.90;;;;;;5040748;28;20486;-83
2022/03/26 12:38:51;;;;;;;38.07;29.60;;;13.90;99.90;;;;;;5046306;28;20395;-82
2022/03/26 12:41:17;;;;;;;35.90;28.83;;;13.70;99.90;;;;;;5045836;28;20865;-83
2022/03/26 12:44:00;;;;;;;37.10;29.13;;;13.60;99.90;;;;;;5043495;28;20397;-82
2022/03/26 12:46:34;;;;;;;37.90;28.17;;;13.50;99.90;;;;;;5027023;28;20439;-82
2022/03/26 12:49:06;;;;;;;39.28;29.42;;;13.70;99.90;;;;;;5044075;28;20389;-82